KNQI/NQI METAR and TAF weather

Enter ICAO airport designator
Station Type Date Time Source
KNQI METAR 2023/05/31 21:56 UTC NOAA

KNQI 312156Z 11014G21KT 10SM FEW040 31/22 A2983 RMK AO2 SLP097 T03110217 $


Station Type Date Time Source
KNQI Decoded METAR 2023/05/31 21:56 UTC NOAA

KINGSVILLE NAS, TX, United States (KNQI) 27-50N 097-81W 15M
May 31, 2023 - 05:56 PM EDT / 2023.05.31 2156 UTC
Wind: from the ESE (110 degrees) at 16 MPH (14 KT) gusting to 24 MPH (21 KT):0
Visibility: 10 mile(s):0
Sky conditions: mostly clear
Temperature: 88.0 F (31.1 C)
Heat index: 93.7 F (34.3 C):1
Dew Point: 71.1 F (21.7 C)
Relative Humidity: 57%
Pressure (altimeter): 29.83 in. Hg (1010 hPa)
ob: KNQI 312156Z 11014G21KT 10SM FEW040 31/22 A2983 RMK AO2 SLP097 T03110217
cycle: 22

Station Type Date Time Source
KNQI TAF 2023/05/31 15:57 UTC NOAA

TAF KNQI 3115/0115 11011KT 9999 VCSH SCT028 SCT070 QNH2985INS
TEMPO 3115/3118 -SHRA BKN028 BKN100
FM311800 12012G18KT 9999 FEW040 SCT250 QNH2977INS
FM010300 13008KT 9999 SKC QNH2983INS
FM010900 13005KT 9999 SCT020 QNH2980INS TX34/3120Z TN22/0111Z FN20081

Example: see airport list